createdAt,value
2018-11-03T00:01:26.644Z,49.03
2018-11-03T00:03:55.116Z,49.53
2018-11-03T00:06:23.398Z,50.33
2018-11-03T00:08:51.652Z,52.87
2018-11-03T00:11:19.927Z,55.23
2018-11-03T00:13:48.471Z,51.70
2018-11-03T00:16:16.698Z,47.13
2018-11-03T00:18:45.162Z,49.47
2018-11-03T00:21:13.495Z,52.50
2018-11-03T00:23:41.783Z,55.37
2018-11-03T00:26:10.022Z,52.07
2018-11-03T00:28:38.368Z,48.73
2018-11-03T00:31:06.768Z,50.50
2018-11-03T00:33:35.011Z,49.23
2018-11-03T00:36:03.415Z,54.03
2018-11-03T00:38:31.616Z,54.30
2018-11-03T00:41:00.055Z,53.07
2018-11-03T00:43:28.311Z,52.80
2018-11-03T00:45:56.836Z,48.77
2018-11-03T00:48:25.034Z,47.20
2018-11-03T00:50:53.196Z,43.27
2018-11-03T00:53:21.667Z,41.10
2018-11-03T00:55:49.807Z,42.00
2018-11-03T00:58:18.365Z,44.03
2018-11-03T01:00:46.772Z,39.20
2018-11-03T01:03:14.923Z,42.73
2018-11-03T01:05:43.479Z,44.17
2018-11-03T01:08:11.719Z,44.93
2018-11-03T01:10:39.991Z,46.67
2018-11-03T01:13:08.452Z,47.17
2018-11-03T01:15:36.974Z,46.10
2018-11-03T01:18:05.219Z,41.47
2018-11-03T01:20:33.594Z,39.33
2018-11-03T01:23:01.779Z,43.20
2018-11-03T01:25:30.219Z,43.30
2018-11-03T01:27:58.551Z,43.20
2018-11-03T01:30:27.017Z,42.43
2018-11-03T01:32:55.286Z,39.67
2018-11-03T01:35:23.575Z,39.47
2018-11-03T01:37:51.847Z,42.20
2018-11-03T01:40:20.083Z,37.67
2018-11-03T01:42:48.655Z,33.70
2018-11-03T01:45:16.763Z,35.17
2018-11-03T01:47:45.130Z,31.27
2018-11-03T01:50:14.239Z,30.45
2018-11-03T01:52:42.709Z,28.73
2018-11-03T01:55:10.874Z,28.00
2018-11-03T01:57:39.099Z,28.20
2018-11-03T02:00:07.902Z,28.07
2018-11-03T02:02:36.233Z,28.23
2018-11-03T02:05:04.827Z,27.77
2018-11-03T02:07:32.976Z,28.10
2018-11-03T02:10:01.263Z,22.73
2018-11-03T02:12:29.575Z,25.80
2018-11-03T02:14:57.794Z,20.60
2018-11-03T02:17:26.320Z,22.60
2018-11-03T02:19:54.647Z,18.87
2018-11-03T02:22:23.016Z,17.70
2018-11-03T02:24:51.100Z,17.17
2018-11-03T02:27:19.624Z,17.40
2018-11-03T02:29:47.851Z,17.50
2018-11-03T02:32:16.209Z,17.83
2018-11-03T02:34:44.410Z,16.90
2018-11-03T02:37:12.876Z,17.67
2018-11-03T02:39:40.981Z,17.77
2018-11-03T02:42:09.276Z,17.20
2018-11-03T02:44:37.533Z,18.77
2018-11-03T02:47:05.972Z,17.40
2018-11-03T02:49:34.210Z,18.13
2018-11-03T02:52:02.319Z,17.53
2018-11-03T02:54:30.463Z,19.87
2018-11-03T02:56:58.787Z,17.90
2018-11-03T02:59:27.232Z,19.70
2018-11-03T03:01:55.452Z,18.33
2018-11-03T03:04:23.970Z,19.13
2018-11-03T03:06:52.092Z,18.53
2018-11-03T03:09:20.256Z,18.23
2018-11-03T03:11:48.566Z,19.27
2018-11-03T03:14:17.015Z,19.37
2018-11-03T03:16:45.323Z,20.10
2018-11-03T03:19:13.660Z,17.97
2018-11-03T03:21:42.055Z,18.03
2018-11-03T03:24:10.153Z,17.73
2018-11-03T03:26:38.417Z,18.97
2018-11-03T03:29:06.886Z,19.70
2018-11-03T03:31:35.228Z,18.77
2018-11-03T03:34:03.495Z,18.83
2018-11-03T03:36:31.983Z,19.20
2018-11-03T03:39:00.213Z,20.23
2018-11-03T03:41:28.520Z,21.00
2018-11-03T03:43:56.804Z,22.30
2018-11-03T03:46:25.239Z,23.03
2018-11-03T03:48:53.558Z,22.83
2018-11-03T03:51:21.969Z,24.20
2018-11-03T03:53:50.272Z,23.93
2018-11-03T03:56:18.819Z,26.13
2018-11-03T03:58:47.051Z,24.10
2018-11-03T04:01:15.537Z,28.43
2018-11-03T04:03:43.862Z,26.87
2018-11-03T04:06:12.096Z,24.97
2018-11-03T04:08:40.579Z,24.60
2018-11-03T04:11:08.850Z,25.90
2018-11-03T04:13:37.306Z,25.07
2018-11-03T04:16:05.436Z,26.80
2018-11-03T04:18:33.907Z,26.43
2018-11-03T04:21:02.108Z,27.00
2018-11-03T04:23:30.394Z,27.63
2018-11-03T04:25:58.499Z,27.10
2018-11-03T04:28:26.961Z,27.33
2018-11-03T04:30:55.284Z,27.33
2018-11-03T04:33:23.244Z,26.53
2018-11-03T04:35:51.015Z,28.97
2018-11-03T04:38:18.827Z,28.63
2018-11-03T04:40:46.529Z,27.83
2018-11-03T04:43:14.214Z,26.43
2018-11-03T04:45:41.971Z,28.53
2018-11-03T04:48:10.148Z,31.37
2018-11-03T04:50:38.364Z,29.30
2018-11-03T04:53:06.627Z,33.90
2018-11-03T04:55:34.959Z,31.73
2018-11-03T04:58:03.187Z,31.60
2018-11-03T05:00:31.723Z,31.17
2018-11-03T05:03:00.027Z,32.60
2018-11-03T05:05:28.410Z,31.70
2018-11-03T05:07:56.695Z,32.50
2018-11-03T05:10:24.506Z,34.43
2018-11-03T05:12:52.822Z,33.53
2018-11-03T05:15:20.922Z,32.87
2018-11-03T05:17:49.105Z,30.07
2018-11-03T05:20:17.541Z,31.70
2018-11-03T05:22:45.775Z,31.30
2018-11-03T05:25:14.230Z,31.03
2018-11-03T05:27:42.524Z,31.10
2018-11-03T05:30:10.991Z,33.67
2018-11-03T05:32:39.210Z,31.37
2018-11-03T05:35:07.367Z,33.97
2018-11-03T05:37:35.658Z,34.97
2018-11-03T05:40:04.149Z,36.17
2018-11-03T05:42:32.344Z,36.53
2018-11-03T05:45:00.429Z,35.33
2018-11-03T05:47:28.735Z,35.87
2018-11-03T05:49:56.998Z,34.43
2018-11-03T05:52:25.267Z,36.87
2018-11-03T05:54:53.591Z,35.90
2018-11-03T05:57:22.024Z,37.27
2018-11-03T05:59:50.266Z,43.60
2018-11-03T06:02:19.388Z,45.33
2018-11-03T06:04:47.172Z,46.53
2018-11-03T06:07:14.915Z,47.57
2018-11-03T06:09:43.211Z,44.63
2018-11-03T06:12:10.959Z,43.10
2018-11-03T06:14:38.785Z,44.60
2018-11-03T06:17:06.604Z,45.03
2018-11-03T06:19:34.352Z,42.17
2018-11-03T06:22:02.031Z,42.43
2018-11-03T06:24:29.792Z,42.47
2018-11-03T06:26:57.539Z,42.70
2018-11-03T06:29:25.254Z,42.90
2018-11-03T06:31:52.960Z,42.60
2018-11-03T06:34:20.702Z,46.77
2018-11-03T06:36:48.496Z,47.60
2018-11-03T06:39:16.245Z,46.00
2018-11-03T06:41:43.962Z,47.60
2018-11-03T06:44:11.715Z,44.93
2018-11-03T06:46:39.626Z,45.90
2018-11-03T06:49:12.872Z,48.30
2018-11-03T06:51:40.630Z,44.73
2018-11-03T06:54:08.363Z,45.50
2018-11-03T06:56:36.144Z,46.13
2018-11-03T06:59:04.008Z,44.07
2018-11-03T07:01:31.818Z,48.93
2018-11-03T07:04:00.163Z,49.00
2018-11-03T07:06:28.449Z,47.63
2018-11-03T07:08:56.905Z,48.70
2018-11-03T07:11:25.484Z,46.60
2018-11-03T07:13:53.766Z,46.07
2018-11-03T07:16:22.136Z,48.70
2018-11-03T07:18:50.634Z,46.43
2018-11-03T07:21:18.914Z,48.43
2018-11-03T07:23:47.172Z,45.43
2018-11-03T07:26:15.503Z,44.67
2018-11-03T07:28:43.980Z,42.90
2018-11-03T07:31:12.217Z,42.80
2018-11-03T07:33:40.783Z,41.97
2018-11-03T07:36:08.864Z,39.73
2018-11-03T07:38:37.241Z,42.40
2018-11-03T07:41:05.909Z,38.50
2018-11-03T07:43:34.063Z,39.33
2018-11-03T07:46:02.478Z,40.30
2018-11-03T07:48:30.805Z,39.40
2018-11-03T07:50:59.304Z,41.57
2018-11-03T07:53:27.539Z,40.23
2018-11-03T07:55:55.782Z,42.03
2018-11-03T07:58:24.047Z,39.77
2018-11-03T08:00:52.575Z,38.47
2018-11-03T08:03:20.786Z,36.13
2018-11-03T08:05:49.159Z,39.87
2018-11-03T08:08:17.349Z,38.37
2018-11-03T08:10:45.852Z,43.93
2018-11-03T08:13:14.216Z,39.43
2018-11-03T08:15:42.375Z,40.43
2018-11-03T08:18:10.675Z,39.70
2018-11-03T08:20:38.791Z,38.17
2018-11-03T08:23:07.195Z,39.50
2018-11-03T08:25:35.290Z,35.50
2018-11-03T08:28:03.573Z,39.00
2018-11-03T08:30:32.083Z,41.07
2018-11-03T08:33:00.325Z,40.47
2018-11-03T08:35:28.838Z,37.17
2018-11-03T08:37:57.064Z,37.03
2018-11-03T08:40:25.538Z,42.77
2018-11-03T08:42:53.322Z,40.73
2018-11-03T08:45:21.142Z,40.13
2018-11-03T08:47:48.827Z,39.97
2018-11-03T08:50:16.619Z,40.73
2018-11-03T08:52:45.115Z,39.07
2018-11-03T08:55:13.786Z,38.77
2018-11-03T08:57:42.327Z,39.23
2018-11-03T09:00:12.747Z,39.03
2018-11-03T09:02:41.227Z,37.67
2018-11-03T09:05:10.385Z,38.97
2018-11-03T09:07:38.486Z,37.50
2018-11-03T09:10:08.358Z,35.17
2018-11-03T09:12:36.686Z,37.20
2018-11-03T09:15:05.907Z,37.80
2018-11-03T09:17:33.975Z,33.90
2018-11-03T09:20:02.516Z,34.33
2018-11-03T09:22:30.785Z,33.07
2018-11-03T09:24:59.111Z,31.60
2018-11-03T09:27:27.783Z,33.23
2018-11-03T09:29:55.975Z,33.77
2018-11-03T09:32:24.257Z,34.27
2018-11-03T09:34:52.851Z,31.67
2018-11-03T09:37:21.072Z,32.83
2018-11-03T09:39:49.411Z,34.10
2018-11-03T09:42:17.674Z,31.73
2018-11-03T09:44:46.101Z,32.00
2018-11-03T09:47:14.384Z,31.67
2018-11-03T09:49:43.107Z,31.73
2018-11-03T09:52:11.345Z,31.17
2018-11-03T09:54:39.800Z,30.83
2018-11-03T09:57:07.880Z,31.63
2018-11-03T09:59:36.168Z,29.33
2018-11-03T10:02:04.392Z,30.03
2018-11-03T10:04:32.506Z,29.50
2018-11-03T10:07:00.772Z,28.97
2018-11-03T10:09:29.067Z,29.60
2018-11-03T10:11:57.552Z,29.97
2018-11-03T10:14:25.375Z,32.17
2018-11-03T10:16:53.176Z,31.33
2018-11-03T10:19:20.972Z,28.33
2018-11-03T10:21:48.706Z,29.10
2018-11-03T10:24:16.421Z,26.73
2018-11-03T10:26:44.203Z,26.63
2018-11-03T10:29:11.954Z,24.17
2018-11-03T10:31:39.674Z,26.03
2018-11-03T10:34:07.568Z,26.80
2018-11-03T10:36:35.311Z,25.83
2018-11-03T10:39:04.131Z,25.63
2018-11-03T10:41:31.951Z,24.83
2018-11-03T10:43:59.687Z,25.47
2018-11-03T10:46:27.604Z,24.60
2018-11-03T10:48:55.354Z,24.13
2018-11-03T10:51:24.067Z,25.10
2018-11-03T10:53:52.252Z,24.90
2018-11-03T10:56:20.843Z,25.43
2018-11-03T10:58:49.059Z,26.57
2018-11-03T11:01:22.367Z,25.87
2018-11-03T11:05:57.435Z,27.20
2018-11-03T11:08:31.743Z,26.77
2018-11-03T11:11:04.902Z,27.73
2018-11-03T11:13:34.427Z,26.43
2018-11-03T11:16:02.226Z,26.97
2018-11-03T11:18:29.956Z,26.37
2018-11-03T11:20:57.691Z,25.43
2018-11-03T11:23:25.521Z,25.00
2018-11-03T11:25:53.203Z,24.10
2018-11-03T11:28:21.060Z,24.03
2018-11-03T11:30:48.764Z,24.10
2018-11-03T11:33:17.304Z,23.87
2018-11-03T11:35:45.103Z,22.33
2018-11-03T11:38:13.516Z,21.63
2018-11-03T11:40:41.598Z,21.50
2018-11-03T11:43:10.431Z,20.67
2018-11-03T11:45:38.463Z,20.13
2018-11-03T11:48:06.261Z,20.23
2018-11-03T11:50:34.122Z,19.30
2018-11-03T11:53:01.836Z,18.90
2018-11-03T11:55:29.587Z,17.40
2018-11-03T11:57:57.408Z,16.97
2018-11-03T12:00:25.294Z,18.33
2018-11-03T12:02:59.775Z,17.53
2018-11-03T12:05:27.658Z,18.07
2018-11-03T12:07:55.507Z,18.87
2018-11-03T12:10:23.306Z,22.30
2018-11-03T12:12:51.095Z,18.33
2018-11-03T12:15:18.878Z,18.50
2018-11-03T12:17:46.705Z,18.03
2018-11-03T12:20:14.519Z,17.97
2018-11-03T12:22:42.205Z,17.57
2018-11-03T12:25:10.931Z,19.47
2018-11-03T12:27:38.982Z,21.93
2018-11-03T12:30:09.027Z,21.13
2018-11-03T12:32:36.948Z,21.83
2018-11-03T12:35:05.143Z,21.60
2018-11-03T12:37:32.972Z,21.40
2018-11-03T12:40:00.764Z,20.03
2018-11-03T12:42:28.510Z,19.60
2018-11-03T12:44:56.251Z,18.77
2018-11-03T12:47:24.106Z,18.57
2018-11-03T12:49:59.034Z,16.67
2018-11-03T12:52:27.692Z,15.60
2018-11-03T12:54:55.507Z,16.13
2018-11-03T12:57:23.332Z,16.77
2018-11-03T12:59:51.181Z,17.70
2018-11-03T13:02:18.906Z,17.40
2018-11-03T13:04:46.757Z,18.07
2018-11-03T13:07:14.566Z,17.77
2018-11-03T13:09:42.473Z,17.87
2018-11-03T13:12:10.157Z,19.67
2018-11-03T13:14:37.960Z,18.17
2018-11-03T13:17:06.079Z,17.73
2018-11-03T13:19:33.911Z,18.40
2018-11-03T13:22:01.733Z,18.87
2018-11-03T13:24:29.452Z,17.70
2018-11-03T13:26:57.203Z,18.30
2018-11-03T13:29:24.988Z,18.73
2018-11-03T13:31:52.779Z,17.70
2018-11-03T13:34:20.555Z,18.93
2018-11-03T13:36:49.272Z,17.70
2018-11-03T13:39:17.021Z,17.83
2018-11-03T13:41:44.779Z,19.43
2018-11-03T13:44:12.556Z,19.57
2018-11-03T13:46:40.347Z,17.67
2018-11-03T13:49:08.097Z,18.43
2018-11-03T13:51:35.899Z,19.47
2018-11-03T13:54:03.671Z,19.43
2018-11-03T13:56:31.451Z,19.23
2018-11-03T13:58:59.315Z,16.37
2018-11-03T14:01:27.098Z,18.80
2018-11-03T14:03:54.844Z,19.93
2018-11-03T14:06:22.660Z,19.77
2018-11-03T14:08:50.388Z,21.47
2018-11-03T14:11:18.223Z,20.87
2018-11-03T14:13:45.923Z,19.87
2018-11-03T14:16:13.727Z,19.73
2018-11-03T14:18:41.832Z,19.87
2018-11-03T14:21:10.071Z,19.90
2018-11-03T14:23:37.899Z,19.77
2018-11-03T14:26:05.924Z,19.37
2018-11-03T14:28:33.700Z,19.63
2018-11-03T14:31:01.415Z,19.83
2018-11-03T14:33:29.313Z,19.67
2018-11-03T14:35:57.107Z,20.17
2018-11-03T14:38:24.867Z,19.20
2018-11-03T14:40:52.655Z,19.83
2018-11-03T14:43:20.458Z,20.50
2018-11-03T14:45:48.238Z,20.97
2018-11-03T14:48:16.000Z,19.20
2018-11-03T14:50:43.858Z,20.03
2018-11-03T14:53:11.564Z,19.60
2018-11-03T14:55:39.283Z,21.50
2018-11-03T14:58:07.034Z,23.20
2018-11-03T15:00:35.808Z,23.10
2018-11-03T15:03:04.155Z,21.93
2018-11-03T15:05:31.991Z,23.90
2018-11-03T15:07:59.750Z,23.40
2018-11-03T15:10:27.531Z,24.27
2018-11-03T15:12:55.306Z,24.33
2018-11-03T15:15:23.027Z,24.10
2018-11-03T15:17:50.759Z,24.83
2018-11-03T15:20:18.628Z,24.47
2018-11-03T15:22:46.524Z,25.80
2018-11-03T15:25:14.319Z,25.17
2018-11-03T15:27:42.523Z,25.23
2018-11-03T15:30:11.503Z,27.67
2018-11-03T15:32:39.634Z,27.73
2018-11-03T15:35:08.272Z,24.67
2018-11-03T15:37:35.983Z,27.33
2018-11-03T15:40:04.187Z,37.03
2018-11-03T15:42:32.024Z,71.87
2018-11-03T15:44:59.812Z,42.23
2018-11-03T15:47:27.604Z,32.50
2018-11-03T15:49:55.430Z,30.10
2018-11-03T15:52:23.375Z,28.67
2018-11-03T15:54:51.115Z,30.03
2018-11-03T15:57:18.964Z,30.20
2018-11-03T15:59:46.859Z,29.30
2018-11-03T16:02:14.599Z,27.43
2018-11-03T16:04:42.557Z,25.73
2018-11-03T16:07:10.287Z,27.97
2018-11-03T16:09:38.036Z,28.87
2018-11-03T16:12:06.268Z,30.57
2018-11-03T16:14:34.051Z,28.23
2018-11-03T16:17:01.879Z,33.63
2018-11-03T16:19:29.713Z,34.63
2018-11-03T16:21:57.455Z,34.27
2018-11-03T16:24:25.231Z,32.67
2018-11-03T16:26:53.043Z,30.60
2018-11-03T16:29:20.824Z,30.47
2018-11-03T16:31:48.563Z,30.03
2018-11-03T16:34:16.311Z,32.43
2018-11-03T16:36:44.054Z,32.47
2018-11-03T16:39:11.791Z,34.40
2018-11-03T16:41:39.671Z,30.77
2018-11-03T16:44:07.463Z,30.43
2018-11-03T16:46:35.215Z,30.33
2018-11-03T16:49:02.951Z,31.30
2018-11-03T16:51:30.724Z,29.70
2018-11-03T16:53:58.517Z,29.47
2018-11-03T16:56:26.315Z,31.10
2018-11-03T16:58:54.067Z,32.10
2018-11-03T17:01:21.987Z,32.27
2018-11-03T17:03:49.743Z,35.23
2018-11-03T17:06:17.522Z,32.83
2018-11-03T17:08:45.331Z,34.03
2018-11-03T17:11:13.245Z,33.87
2018-11-03T17:13:41.255Z,33.67
2018-11-03T17:16:08.950Z,32.60
2018-11-03T17:18:36.821Z,33.03
2018-11-03T17:21:04.657Z,35.57
2018-11-03T17:23:32.423Z,36.03
2018-11-03T17:26:00.862Z,35.67
2018-11-03T17:28:29.089Z,35.93
2018-11-03T17:30:57.575Z,34.53
2018-11-03T17:33:26.304Z,34.73
2018-11-03T17:35:54.849Z,35.20
2018-11-03T17:38:23.303Z,34.60
2018-11-03T17:40:51.551Z,35.63
2018-11-03T17:43:20.047Z,37.63
2018-11-03T17:45:49.580Z,35.03
2018-11-03T17:48:18.716Z,37.77
2018-11-03T17:50:48.185Z,39.43
2018-11-03T17:53:16.880Z,37.63
2018-11-03T17:55:44.680Z,39.57
2018-11-03T17:58:12.891Z,39.93
2018-11-03T18:00:41.491Z,40.97
2018-11-03T18:03:09.559Z,42.70
2018-11-03T18:05:37.971Z,41.33
2018-11-03T18:08:06.409Z,39.50
2018-11-03T18:10:34.771Z,42.87
2018-11-03T18:13:02.991Z,38.13
2018-11-03T18:15:31.480Z,38.67
2018-11-03T18:17:59.972Z,36.57
2018-11-03T18:20:28.236Z,35.00
2018-11-03T18:22:56.720Z,34.63
2018-11-03T18:25:24.986Z,43.60
2018-11-03T18:27:53.719Z,37.30
2018-11-03T18:30:22.143Z,35.53
2018-11-03T18:32:51.680Z,40.07
2018-11-03T18:35:21.006Z,40.87
2018-11-03T18:37:49.629Z,40.17
2018-11-03T18:40:18.171Z,41.70
2018-11-03T18:42:46.355Z,38.80
2018-11-03T18:45:15.078Z,36.87
2018-11-03T18:47:43.876Z,37.67
2018-11-03T18:50:14.157Z,37.10
2018-11-03T18:52:42.933Z,35.67
2018-11-03T18:55:12.068Z,35.43
2018-11-03T18:57:41.639Z,38.00
2018-11-03T19:00:11.162Z,36.73
2018-11-03T19:02:40.159Z,39.87
2018-11-03T19:05:08.671Z,43.80
2018-11-03T19:07:37.185Z,46.13
2018-11-03T19:10:06.143Z,47.10
2018-11-03T19:12:34.282Z,48.63
2018-11-03T19:15:02.923Z,47.27
2018-11-03T19:17:31.334Z,45.13
2018-11-03T19:19:59.314Z,41.83
2018-11-03T19:22:27.279Z,42.87
2018-11-03T19:24:55.720Z,40.47
2018-11-03T19:27:23.917Z,44.50
2018-11-03T19:29:52.403Z,48.13
2018-11-03T19:32:20.816Z,61.43
2018-11-03T19:34:49.073Z,38.13
2018-11-03T19:37:17.423Z,37.87
2018-11-03T19:39:45.738Z,38.83
2018-11-03T19:42:14.227Z,41.17
2018-11-03T19:44:42.478Z,40.73
2018-11-03T19:47:11.024Z,42.83
2018-11-03T19:49:39.255Z,44.30
2018-11-03T19:52:07.763Z,46.20
2018-11-03T19:54:36.038Z,44.33
2018-11-03T19:57:04.296Z,46.10
2018-11-03T19:59:32.518Z,43.83
2018-11-03T20:02:00.884Z,40.60
2018-11-03T20:04:29.104Z,42.40
2018-11-03T20:06:57.384Z,42.97
2018-11-03T20:09:25.932Z,42.00
2018-11-03T20:11:54.120Z,39.87
2018-11-03T20:14:22.223Z,37.73
2018-11-03T20:16:50.125Z,41.80
2018-11-03T20:19:17.855Z,37.87
2018-11-03T20:21:46.013Z,40.90
2018-11-03T20:24:14.280Z,42.17
2018-11-03T20:26:42.563Z,40.57
2018-11-03T20:29:11.116Z,42.10
2018-11-03T20:31:39.337Z,41.83
2018-11-03T20:34:07.636Z,44.73
2018-11-03T20:36:36.137Z,39.10
2018-11-03T20:39:06.028Z,40.80
2018-11-03T20:41:34.169Z,47.30
2018-11-03T20:44:02.329Z,51.50
2018-11-03T20:46:30.626Z,51.77
2018-11-03T20:48:59.210Z,56.80
2018-11-03T20:51:27.389Z,47.70
2018-11-03T20:53:55.944Z,57.10
2018-11-03T20:56:24.092Z,50.07
2018-11-03T20:58:52.203Z,53.90
2018-11-03T21:01:20.512Z,48.80
2018-11-03T21:03:48.775Z,45.30
2018-11-03T21:06:17.025Z,44.80
2018-11-03T21:08:45.317Z,45.73
2018-11-03T21:11:13.751Z,41.40
2018-11-03T21:13:42.043Z,42.07
2018-11-03T21:16:10.608Z,40.10
2018-11-03T21:18:38.854Z,40.93
2018-11-03T21:21:07.293Z,39.10
2018-11-03T21:23:35.669Z,37.83
2018-11-03T21:26:04.096Z,42.67
2018-11-03T21:28:32.859Z,45.73
2018-11-03T21:31:01.048Z,48.47
2018-11-03T21:33:29.463Z,45.10
2018-11-03T21:35:57.539Z,40.47
2018-11-03T21:38:25.486Z,39.40
2018-11-03T21:40:53.903Z,39.43
2018-11-03T21:43:21.952Z,49.27
2018-11-03T21:45:50.111Z,51.60
2018-11-03T21:48:18.576Z,42.70
2018-11-03T21:50:46.983Z,47.73
2018-11-03T21:53:15.124Z,57.63
2018-11-03T21:55:43.190Z,55.83
2018-11-03T21:58:11.638Z,48.03
2018-11-03T22:00:39.948Z,46.53
2018-11-03T22:03:08.398Z,44.87
2018-11-03T22:05:36.639Z,46.17
2018-11-03T22:08:04.609Z,48.77
2018-11-03T22:10:32.840Z,52.03
2018-11-03T22:13:01.103Z,52.47
2018-11-03T22:15:29.444Z,44.27
2018-11-03T22:17:57.647Z,46.10
2018-11-03T22:20:25.944Z,45.07
2018-11-03T22:22:54.210Z,44.57
2018-11-03T22:25:22.477Z,41.73
2018-11-03T22:27:50.953Z,41.90
2018-11-03T22:30:19.226Z,40.53
2018-11-03T22:32:47.807Z,39.37
2018-11-03T22:35:16.019Z,37.63
2018-11-03T22:37:44.563Z,34.30
2018-11-03T22:40:12.776Z,37.07
2018-11-03T22:42:41.115Z,36.77
2018-11-03T22:45:09.350Z,31.67
2018-11-03T22:47:37.667Z,34.43
2018-11-03T22:50:05.644Z,34.90
2018-11-03T22:52:34.005Z,33.53
2018-11-03T22:55:02.387Z,33.73
2018-11-03T22:57:30.664Z,35.43
2018-11-03T22:59:58.975Z,34.17
2018-11-03T23:02:27.463Z,32.53
2018-11-03T23:04:55.659Z,31.07
2018-11-03T23:07:23.487Z,28.87
2018-11-03T23:09:51.236Z,29.73
2018-11-03T23:12:19.560Z,30.23
2018-11-03T23:14:48.047Z,28.70
2018-11-03T23:17:16.270Z,29.50
2018-11-03T23:19:44.740Z,31.13
2018-11-03T23:22:13.173Z,28.73
2018-11-03T23:24:41.451Z,28.07
2018-11-03T23:27:09.580Z,31.97
2018-11-03T23:29:37.784Z,33.83
2018-11-03T23:32:05.629Z,42.13
2018-11-03T23:34:33.768Z,28.60
2018-11-03T23:37:02.046Z,28.97
2018-11-03T23:39:30.579Z,28.43
2018-11-03T23:41:58.824Z,26.97
2018-11-03T23:44:27.192Z,28.53
2018-11-03T23:46:55.583Z,28.60
2018-11-03T23:49:24.045Z,27.77
2018-11-03T23:51:52.358Z,27.20
2018-11-03T23:54:20.627Z,26.17
2018-11-03T23:56:49.114Z,31.97
2018-11-03T23:59:17.668Z,46.83
